TimeEDT,TemperatureF,Dew PointF,Humidity,Sea Level PressureIn,VisibilityMPH,Wind Direction,Wind SpeedMPH,Gust SpeedMPH,PrecipitationIn,Events,Conditions,WindDirDegrees,DateUTC
12:51 AM,43.0,34.0,71,29.85,10.0,SW,6.9,-,0.01,,Overcast,230,2013-10-23 04:51:00
1:51 AM,42.1,36.0,79,29.84,10.0,SW,6.9,-,0.00,Rain,Light Rain,220,2013-10-23 05:51:00
2:25 AM,41.0,35.6,81,29.83,10.0,SW,11.5,-,0.01,Rain,Light Rain,220,2013-10-23 06:25:00
2:51 AM,39.9,35.1,83,29.84,7.0,SW,13.8,23.0,0.02,Rain,Light Rain,220,2013-10-23 06:51:00
3:17 AM,39.2,35.6,87,29.81,10.0,SSW,9.2,-,0.02,Rain,Light Rain,200,2013-10-23 07:17:00
3:51 AM,39.0,35.1,86,29.81,10.0,SSW,8.1,-,0.02,Rain,Light Rain,200,2013-10-23 07:51:00
4:17 AM,39.2,35.6,87,29.79,10.0,SSW,11.5,-,0.01,Rain,Light Rain,210,2013-10-23 08:17:00
4:51 AM,39.0,35.1,86,29.79,10.0,SSW,10.4,-,0.02,Rain,Light Rain,200,2013-10-23 08:51:00
5:51 AM,39.0,35.1,86,29.78,10.0,South,5.8,-,0.05,Rain,Light Rain,190,2013-10-23 09:51:00
6:14 AM,39.2,35.6,87,29.77,10.0,ENE,6.9,-,0.00,Rain,Light Rain,60,2013-10-23 10:14:00
6:25 AM,37.4,35.6,93,29.77,7.0,NE,4.6,-,0.01,Rain,Light Rain,50,2013-10-23 10:25:00
6:48 AM,39.2,35.6,87,29.76,9.0,SSE,5.8,-,0.02,Rain,Light Rain,160,2013-10-23 10:48:00
6:51 AM,39.0,36.0,89,29.78,10.0,South,5.8,-,0.02,,Overcast,170,2013-10-23 10:51:00
7:51 AM,39.0,36.0,89,29.79,10.0,South,4.6,-,0.00,Rain,Light Rain,190,2013-10-23 11:51:00
8:33 AM,39.2,35.6,87,29.78,8.0,West,5.8,-,0.01,Rain,Light Rain,270,2013-10-23 12:33:00
8:44 AM,39.2,37.4,93,29.78,3.0,WSW,4.6,-,0.02,Rain,Light Rain,240,2013-10-23 12:44:00
8:51 AM,39.0,37.0,93,29.79,4.0,SW,5.8,-,0.03,Rain,Light Rain,230,2013-10-23 12:51:00
9:13 AM,39.2,37.4,93,29.78,10.0,SSW,6.9,-,0.00,,Overcast,200,2013-10-23 13:13:00
9:35 AM,39.2,35.6,87,29.78,10.0,South,5.8,-,0.01,Rain,Light Rain,180,2013-10-23 13:35:00
9:51 AM,39.9,37.0,89,29.79,10.0,SSW,4.6,-,0.01,Rain,Light Rain,210,2013-10-23 13:51:00
10:10 AM,39.2,37.4,93,29.78,7.0,SW,4.6,-,0.00,Rain,Light Rain,220,2013-10-23 14:10:00
10:46 AM,41.0,37.4,87,29.78,10.0,SSW,6.9,-,0.01,,Overcast,200,2013-10-23 14:46:00
10:51 AM,41.0,37.0,86,29.79,10.0,SSW,6.9,-,0.01,,Overcast,210,2013-10-23 14:51:00
11:20 AM,41.0,37.4,87,29.78,10.0,SW,5.8,-,0.00,,Overcast,220,2013-10-23 15:20:00
11:51 AM,42.1,37.0,82,29.79,10.0,SSW,9.2,-,0.00,,Overcast,210,2013-10-23 15:51:00
12:37 PM,41.0,35.6,81,29.78,6.0,SW,8.1,-,0.01,Rain,Light Rain,230,2013-10-23 16:37:00
12:51 PM,41.0,37.9,89,29.79,10.0,SW,4.6,-,0.01,Rain,Light Rain,230,2013-10-23 16:51:00
1:00 PM,41.0,37.4,87,29.77,7.0,SSW,9.2,-,0.01,Rain,Light Rain,210,2013-10-23 17:00:00
1:20 PM,42.8,37.4,81,29.77,10.0,SSW,8.1,-,0.01,,Overcast,200,2013-10-23 17:20:00
1:51 PM,44.1,37.9,79,29.78,10.0,WSW,6.9,-,0.01,,Overcast,250,2013-10-23 17:51:00
2:51 PM,44.1,37.0,76,29.78,10.0,West,6.9,-,0.00,Rain,Light Rain,260,2013-10-23 18:51:00
3:00 PM,42.8,35.6,76,29.76,2.5,WSW,6.9,-,0.02,Rain,Heavy Rain,250,2013-10-23 19:00:00
3:14 PM,42.8,37.4,81,29.76,10.0,Calm,Calm,-,0.06,Rain,Light Rain,0,2013-10-23 19:14:00
3:28 PM,44.6,37.4,76,29.76,10.0,SW,6.9,-,0.06,,Overcast,230,2013-10-23 19:28:00
3:51 PM,46.0,39.9,79,29.78,10.0,SW,9.2,-,0.06,,Mostly Cloudy,220,2013-10-23 19:51:00
4:35 PM,42.8,35.6,76,29.79,8.0,WNW,17.3,29.9,0.02,Rain,Light Rain,300,2013-10-23 20:35:00
4:51 PM,43.0,32.0,65,29.81,10.0,NNW,10.4,20.7,0.02,,Overcast,330,2013-10-23 20:51:00
5:51 PM,45.0,34.0,65,29.82,10.0,NNW,13.8,26.5,N/A,,Overcast,340,2013-10-23 21:51:00
6:51 PM,45.0,32.0,60,29.84,10.0,North,17.3,25.3,N/A,,Overcast,350,2013-10-23 22:51:00
7:51 PM,45.0,30.9,58,29.85,10.0,NNW,9.2,20.7,N/A,,Overcast,330,2013-10-23 23:51:00
8:51 PM,45.0,25.0,46,29.86,10.0,WNW,11.5,21.9,N/A,,Mostly Cloudy,300,2013-10-24 00:51:00
9:51 PM,45.0,24.1,44,29.87,10.0,WNW,10.4,18.4,N/A,,Mostly Cloudy,300,2013-10-24 01:51:00
10:51 PM,45.0,23.0,42,29.87,10.0,WNW,11.5,19.6,N/A,,Scattered Clouds,290,2013-10-24 02:51:00
11:51 PM,39.9,30.9,70,29.88,10.0,SW,9.2,-,N/A,,Overcast,220,2013-10-24 03:51:00